Time;durP1;ratioP1;P1;durP2;ratioP2;P2;SDS_P1;SDS_P2;PMS_P1;PMS_P2;Temp;Humidity;BMP_temperature;BMP_pressure;BME280_temperature;BME280_humidity;BME280_pressure;Samples;Min_cycle;Max_cycle;Signal;HPM_P1;HPM_P2
2022/07/28 00:02:07;;;;;;;9.50;9.20;;;18.20;99.90;;;;;;5060280;28;20308;-86
2022/07/28 00:04:39;;;;;;;9.40;9.10;;;18.20;99.90;;;;;;5058801;28;20807;-86
2022/07/28 00:07:06;;;;;;;9.57;9.27;;;18.20;99.90;;;;;;5060294;28;20234;-85
2022/07/28 00:09:35;;;;;;;9.20;8.90;;;18.00;99.90;;;;;;5060102;28;20247;-85
2022/07/28 00:12:04;;;;;;;9.70;9.40;;;18.00;99.90;;;;;;5060445;28;20299;-85
2022/07/28 00:14:34;;;;;;;10.10;9.80;;;18.00;99.90;;;;;;5058798;28;20266;-85
2022/07/28 00:17:03;;;;;;;9.50;9.20;;;18.00;99.90;;;;;;5058858;28;20238;-85
2022/07/28 00:19:33;;;;;;;9.77;9.48;;;18.00;99.90;;;;;;5058909;28;20233;-85
2022/07/28 00:22:11;;;;;;;9.70;9.40;;;18.00;99.90;;;;;;5070173;28;20243;-85
2022/07/28 00:24:40;;;;;;;9.55;9.25;;;17.90;99.90;;;;;;5077782;28;20294;-85
2022/07/28 00:27:10;;;;;;;9.32;9.02;;;17.90;99.90;;;;;;5077429;28;20222;-85
2022/07/28 00:29:39;;;;;;;9.50;9.20;;;17.90;99.90;;;;;;5061414;28;20298;-84
2022/07/28 00:32:09;;;;;;;9.20;8.90;;;17.80;99.90;;;;;;5060768;28;20234;-85
2022/07/28 00:34:38;;;;;;;9.30;9.00;;;17.80;99.90;;;;;;5062516;28;20269;-85
2022/07/28 00:39:54;;;;;;;9.38;9.07;;;17.70;99.90;;;;;;5060320;28;20222;-85
2022/07/28 00:42:24;;;;;;;9.80;9.50;;;17.60;99.90;;;;;;5059245;28;20242;-85
2022/07/28 00:44:54;;;;;;;9.50;9.20;;;17.60;99.90;;;;;;5058397;28;20261;-85
2022/07/28 00:47:23;;;;;;;9.70;9.40;;;17.60;99.90;;;;;;5058394;28;20293;-86
2022/07/28 00:49:52;;;;;;;9.90;9.60;;;17.60;99.90;;;;;;5058523;28;20302;-86
2022/07/28 00:52:30;;;;;;;10.10;9.80;;;17.60;99.90;;;;;;5057871;28;20247;-85
2022/07/28 00:55:00;;;;;;;10.00;9.70;;;17.60;99.90;;;;;;5058180;28;20257;-85
2022/07/28 00:57:29;;;;;;;10.00;9.70;;;17.60;99.90;;;;;;5057699;28;20269;-85
2022/07/28 00:59:59;;;;;;;10.20;9.90;;;17.60;99.90;;;;;;5058078;28;20322;-85
2022/07/28 01:02:28;;;;;;;9.93;9.63;;;17.50;99.90;;;;;;5057129;28;20239;-84
2022/07/28 01:04:58;;;;;;;9.70;9.40;;;17.50;99.90;;;;;;5057156;28;20325;-85
2022/07/28 01:07:38;;;;;;;10.02;9.73;;;17.50;99.90;;;;;;5057075;28;20278;-85
2022/07/28 01:10:14;;;;;;;9.70;9.40;;;17.50;99.90;;;;;;5057661;28;20299;-85
2022/07/28 01:12:52;;;;;;;9.80;9.50;;;17.50;99.90;;;;;;5057385;28;20254;-85
2022/07/28 01:15:31;;;;;;;9.80;9.50;;;17.40;99.90;;;;;;5057442;28;20223;-85
2022/07/28 01:18:14;;;;;;;9.80;9.50;;;17.50;99.90;;;;;;5066246;28;20257;-84
2022/07/28 01:20:49;;;;;;;9.73;9.43;;;17.40;99.90;;;;;;5060727;28;20226;-85
2022/07/28 01:24:12;;;;;;;9.65;9.35;;;17.40;99.90;;;;;;5062331;28;20237;-85
2022/07/28 01:26:58;;;;;;;9.60;9.30;;;17.40;99.90;;;;;;5061225;28;20233;-85
2022/07/28 01:30:03;;;;;;;9.60;9.30;;;17.40;99.90;;;;;;5061874;28;20210;-85
2022/07/28 01:32:41;;;;;;;9.70;9.40;;;17.30;99.90;;;;;;5061485;28;20254;-85
2022/07/28 01:35:20;;;;;;;9.68;9.38;;;17.30;99.90;;;;;;5061070;28;20253;-85
2022/07/28 01:37:57;;;;;;;9.07;8.88;;;17.40;99.90;;;;;;5061788;28;20254;-85
2022/07/28 01:43:23;;;;;;;9.50;9.20;;;17.40;99.90;;;;;;5060031;28;20238;-85
2022/07/28 01:45:52;;;;;;;9.30;9.00;;;17.40;99.90;;;;;;5071812;28;20227;-84
2022/07/28 01:48:30;;;;;;;9.30;9.00;;;17.40;99.90;;;;;;5062375;28;20289;-85
2022/07/28 01:51:00;;;;;;;9.00;8.80;;;17.40;99.90;;;;;;5061352;28;20230;-85
2022/07/28 01:53:31;;;;;;;8.80;8.60;;;17.40;99.90;;;;;;5060957;28;20291;-85
2022/07/28 01:58:46;;;;;;;8.90;8.70;;;17.40;99.90;;;;;;5060210;28;20286;-85
2022/07/28 02:01:16;;;;;;;9.20;8.90;;;17.40;99.90;;;;;;5060452;28;20223;-85
2022/07/28 02:03:53;;;;;;;8.90;8.70;;;17.40;99.90;;;;;;5060499;28;20230;-84
2022/07/28 02:06:23;;;;;;;8.90;8.70;;;17.40;99.90;;;;;;5060995;28;20305;-85
2022/07/28 02:08:53;;;;;;;8.93;8.73;;;17.50;99.90;;;;;;5060681;28;20222;-85
2022/07/28 02:14:11;;;;;;;9.20;8.90;;;17.40;99.90;;;;;;5057293;28;20230;-85
2022/07/28 02:16:49;;;;;;;9.40;9.10;;;17.40;99.90;;;;;;5061080;28;20231;-85
2022/07/28 02:19:28;;;;;;;9.50;9.20;;;17.30;99.90;;;;;;5060850;28;20250;-84
2022/07/28 02:21:56;;;;;;;9.40;9.10;;;17.30;99.90;;;;;;5065761;28;20273;-85
2022/07/28 02:24:26;;;;;;;9.27;8.98;;;17.20;99.90;;;;;;5081442;28;20222;-84
2022/07/28 02:27:03;;;;;;;9.02;8.80;;;17.20;99.90;;;;;;5082289;28;20279;-84
2022/07/28 02:29:41;;;;;;;9.27;8.98;;;17.20;99.90;;;;;;5082010;28;20278;-84
2022/07/28 02:32:19;;;;;;;9.00;8.80;;;17.10;99.90;;;;;;5081937;28;20211;-84
2022/07/28 02:34:58;;;;;;;9.32;9.02;;;17.10;99.90;;;;;;5082184;28;20231;-84
2022/07/28 02:37:35;;;;;;;8.80;8.60;;;17.10;99.90;;;;;;5081954;28;20251;-84
2022/07/28 02:40:05;;;;;;;8.90;8.70;;;17.10;99.90;;;;;;5081852;28;20210;-84
2022/07/28 02:42:35;;;;;;;9.00;8.80;;;17.00;99.90;;;;;;5081672;28;20282;-84
2022/07/28 02:45:14;;;;;;;8.90;8.70;;;16.90;99.90;;;;;;5080555;28;20223;-85
2022/07/28 02:47:50;;;;;;;8.93;8.73;;;16.90;99.90;;;;;;5081108;28;20231;-83
2022/07/28 02:50:29;;;;;;;8.93;8.73;;;16.90;99.90;;;;;;5080446;28;20227;-85
2022/07/28 02:53:00;;;;;;;9.40;9.10;;;16.90;99.90;;;;;;5062059;28;20257;-85
2022/07/28 02:55:30;;;;;;;8.88;8.68;;;16.80;99.90;;;;;;5061479;28;20309;-85
2022/07/28 02:57:59;;;;;;;9.07;8.88;;;16.80;99.90;;;;;;5068615;28;20234;-85
2022/07/28 03:00:27;;;;;;;8.88;8.68;;;16.80;99.90;;;;;;5062798;28;20238;-86
2022/07/28 03:02:56;;;;;;;9.10;8.90;;;16.80;99.90;;;;;;5061081;28;20292;-85
2022/07/28 03:05:36;;;;;;;9.15;8.90;;;16.70;99.90;;;;;;5060661;28;20656;-85
2022/07/28 03:08:04;;;;;;;9.40;9.10;;;16.70;99.90;;;;;;5062132;28;20230;-85
2022/07/28 03:10:33;;;;;;;8.70;8.50;;;16.70;99.90;;;;;;5060768;28;20266;-85
2022/07/28 03:13:02;;;;;;;8.80;8.60;;;16.70;99.90;;;;;;5060569;28;20281;-85
2022/07/28 03:15:32;;;;;;;8.73;8.52;;;16.70;99.90;;;;;;5059802;28;20282;-85
2022/07/28 03:18:05;;;;;;;10.15;9.85;;;16.70;99.90;;;;;;5059715;28;20230;-85
2022/07/28 03:20:36;;;;;;;10.10;9.80;;;16.70;99.90;;;;;;5060039;28;20325;-85
2022/07/28 03:23:04;;;;;;;10.10;9.80;;;16.70;99.90;;;;;;5060254;28;20262;-85
2022/07/28 03:25:41;;;;;;;10.10;9.80;;;16.60;99.90;;;;;;5062251;28;20238;-85
2022/07/28 03:28:12;;;;;;;10.25;9.95;;;16.60;99.90;;;;;;5062940;28;20231;-85
2022/07/28 03:30:48;;;;;;;10.40;10.10;;;16.60;99.90;;;;;;5062017;28;20233;-85
2022/07/28 03:33:17;;;;;;;10.20;9.90;;;16.60;99.90;;;;;;5060422;28;20295;-85
2022/07/28 03:35:57;;;;;;;10.02;9.73;;;16.50;99.90;;;;;;5059495;28;20223;-85
2022/07/28 03:38:34;;;;;;;10.80;10.50;;;16.50;99.90;;;;;;5060402;28;20233;-85
2022/07/28 03:41:04;;;;;;;10.48;10.18;;;16.40;99.90;;;;;;5060583;28;20230;-85
2022/07/28 03:43:33;;;;;;;10.48;10.18;;;16.40;99.90;;;;;;5058238;28;20294;-85
2022/07/28 03:46:02;;;;;;;10.38;10.07;;;16.50;99.90;;;;;;5057765;28;20226;-85
2022/07/28 03:48:33;;;;;;;10.30;10.00;;;16.50;99.90;;;;;;5059065;28;20266;-85
2022/07/28 03:51:04;;;;;;;10.40;10.10;;;16.40;99.90;;;;;;5059774;28;20264;-85
2022/07/28 03:53:31;;;;;;;10.35;10.05;;;16.40;99.90;;;;;;5060350;28;20250;-84
2022/07/28 03:56:02;;;;;;;10.40;10.10;;;16.40;99.90;;;;;;5059892;28;20329;-85
2022/07/28 03:58:29;;;;;;;10.40;10.10;;;16.40;99.90;;;;;;5060077;28;20239;-85
2022/07/28 04:00:59;;;;;;;10.18;9.88;;;16.40;99.90;;;;;;5060280;28;20237;-85
2022/07/28 04:03:29;;;;;;;10.25;9.95;;;16.40;99.90;;;;;;5058508;28;20322;-85
2022/07/28 04:05:58;;;;;;;10.38;10.07;;;16.40;99.90;;;;;;5059837;28;20285;-85
2022/07/28 04:08:36;;;;;;;10.35;10.05;;;16.30;99.90;;;;;;5059490;28;20843;-85
2022/07/28 04:11:05;;;;;;;10.55;10.25;;;16.30;99.90;;;;;;5061393;28;20326;-83
2022/07/28 04:13:35;;;;;;;10.30;10.00;;;16.30;99.90;;;;;;5078318;28;20219;-84
2022/07/28 04:16:05;;;;;;;10.25;9.95;;;16.30;99.90;;;;;;5079115;28;20241;-84
2022/07/28 04:18:35;;;;;;;10.40;10.10;;;16.40;99.90;;;;;;5069466;28;20235;-85
2022/07/28 04:21:04;;;;;;;10.48;10.18;;;16.30;99.90;;;;;;5076682;28;20222;-84
2022/07/28 04:23:35;;;;;;;10.48;10.18;;;16.30;99.90;;;;;;5060815;28;20241;-85
2022/07/28 04:26:03;;;;;;;10.60;10.30;;;16.30;99.90;;;;;;5060165;28;20294;-84
2022/07/28 04:28:32;;;;;;;10.70;10.40;;;16.30;99.90;;;;;;5059428;28;20234;-85
2022/07/28 04:31:02;;;;;;;10.55;10.25;;;16.40;99.90;;;;;;5059304;28;20302;-85
2022/07/28 04:33:30;;;;;;;10.50;10.20;;;16.40;99.90;;;;;;5058619;28;20283;-85
2022/07/28 04:36:00;;;;;;;10.80;10.50;;;16.50;99.90;;;;;;5058973;28;20235;-85
2022/07/28 04:38:30;;;;;;;11.05;10.75;;;16.50;99.90;;;;;;5058970;28;20700;-85
2022/07/28 04:41:08;;;;;;;10.63;10.32;;;16.60;99.90;;;;;;5059148;28;20242;-85
2022/07/28 04:43:37;;;;;;;10.50;10.20;;;16.60;99.90;;;;;;5058548;28;20249;-85
2022/07/28 04:46:12;;;;;;;10.50;10.20;;;16.70;99.90;;;;;;5103128;22;20241;-82
2022/07/28 04:48:48;;;;;;;10.60;10.30;;;16.80;99.90;;;;;;5084391;28;20229;-82
2022/07/28 04:51:16;;;;;;;10.57;10.27;;;16.80;99.90;;;;;;5084408;28;20221;-82
2022/07/28 04:54:19;;;;;;;10.50;10.20;;;16.90;99.90;;;;;;5085066;28;20229;-82
2022/07/28 05:02:24;;;;;;;10.50;10.20;;;17.00;99.90;;;;;;5052282;28;20286;-80
2022/07/28 05:25:56;;;;;;;10.30;10.00;;;17.20;99.90;;;;;;4885194;22;20301;-81
2022/07/28 06:28:25;;;;;;;10.70;10.40;;;18.50;99.90;;;;;;4853271;29;20220;-83
2022/07/28 06:31:37;;;;;;;10.50;10.20;;;18.70;99.90;;;;;;4963949;28;20285;-85
2022/07/28 06:37:15;;;;;;;10.35;10.05;;;19.20;99.90;;;;;;4994701;28;20219;-85
2022/07/28 06:40:10;;;;;;;10.80;10.50;;;19.40;99.90;;;;;;5026204;28;20224;-85
2022/07/28 06:45:24;;;;;;;10.90;10.60;;;19.60;99.90;;;;;;5046627;28;20270;-85
2022/07/28 06:51:33;;;;;;;10.40;10.10;;;19.80;99.90;;;;;;5065418;28;20226;-85
2022/07/28 06:54:09;;;;;;;10.63;10.32;;;19.90;99.90;;;;;;5065925;28;20219;-87
2022/07/28 07:06:48;;;;;;;11.00;10.70;;;20.70;99.90;;;;;;4973883;28;20228;-85
2022/07/28 07:09:25;;;;;;;10.90;10.60;;;20.90;99.90;;;;;;5023397;28;20302;-81
2022/07/28 07:11:56;;;;;;;10.98;10.68;;;21.00;99.90;;;;;;5023451;28;20291;-81
2022/07/28 07:14:27;;;;;;;10.75;10.45;;;21.10;99.90;;;;;;5023785;28;20255;-84
2022/07/28 07:19:42;;;;;;;10.52;10.23;;;21.50;99.90;;;;;;5024601;28;20240;-83
2022/07/28 07:22:39;;;;;;;10.60;10.30;;;21.60;99.90;;;;;;5023982;28;20236;-84
2022/07/28 07:30:42;;;;;;;10.85;10.55;;;22.00;99.90;;;;;;5025284;28;20283;-86
2022/07/28 07:33:11;;;;;;;11.13;10.82;;;22.00;99.90;;;;;;5024641;28;20263;-83
2022/07/28 07:35:41;;;;;;;10.95;10.65;;;22.00;99.90;;;;;;5023554;28;20244;-83
2022/07/28 07:40:57;;;;;;;10.73;10.43;;;21.90;99.90;;;;;;5024222;28;20232;-84
2022/07/28 07:43:26;;;;;;;10.77;10.48;;;21.90;99.90;;;;;;5024111;28;20702;-84
2022/07/28 07:45:56;;;;;;;10.65;10.35;;;21.90;99.90;;;;;;5024794;28;20232;-85
2022/07/28 07:48:26;;;;;;;11.20;10.90;;;21.90;99.90;;;;;;5024774;28;20236;-85
2022/07/28 07:50:55;;;;;;;10.73;10.43;;;22.00;99.90;;;;;;5023028;28;20295;-83
2022/07/28 07:56:13;;;;;;;10.60;10.30;;;22.20;99.90;;;;;;5041200;28;20258;-83
2022/07/28 07:58:41;;;;;;;10.70;10.40;;;22.30;99.90;;;;;;5041442;28;20239;-84
2022/07/28 08:01:10;;;;;;;10.75;10.45;;;22.40;99.90;;;;;;5023023;28;20228;-82
2022/07/28 08:03:40;;;;;;;10.63;10.32;;;22.30;99.90;;;;;;5023001;28;22129;-83
2022/07/28 08:06:09;;;;;;;10.90;10.60;;;22.40;99.90;;;;;;5022800;28;20236;-83
2022/07/28 08:11:25;;;;;;;11.07;10.77;;;22.50;99.90;;;;;;5023882;28;20772;-84
2022/07/28 08:13:55;;;;;;;11.02;10.73;;;22.60;99.90;;;;;;5023997;28;20236;-84
2022/07/28 08:16:24;;;;;;;10.80;10.50;;;22.70;99.90;;;;;;5022606;28;20267;-83
2022/07/28 08:18:57;;;;;;;11.15;10.85;;;22.90;99.90;;;;;;5023110;28;20251;-83
2022/07/28 08:21:25;;;;;;;10.95;10.65;;;23.10;99.90;;;;;;5035447;28;20235;-83
2022/07/28 08:23:56;;;;;;;10.85;10.55;;;23.30;99.90;;;;;;5044510;28;20239;-83
2022/07/28 08:26:24;;;;;;;10.75;10.45;;;23.40;99.90;;;;;;5044212;28;20240;-83
2022/07/28 08:28:52;;;;;;;10.90;10.60;;;23.40;99.90;;;;;;5046385;28;20244;-83
2022/07/28 08:31:31;;;;;;;10.80;10.50;;;23.60;99.90;;;;;;5046707;28;20231;-83
2022/07/28 08:34:00;;;;;;;10.90;10.60;;;23.70;99.90;;;;;;5043960;28;20239;-83
2022/07/28 08:36:30;;;;;;;10.80;10.50;;;23.90;99.90;;;;;;5043625;28;20231;-82
2022/07/28 08:39:01;;;;;;;10.93;10.63;;;24.00;99.90;;;;;;5042446;28;20286;-82
2022/07/28 08:41:37;;;;;;;10.95;10.65;;;24.20;99.90;;;;;;5049995;28;20255;-82
2022/07/28 08:44:16;;;;;;;11.35;11.05;;;24.30;99.90;;;;;;5050616;28;20243;-84
2022/07/28 08:46:44;;;;;;;11.02;10.73;;;24.50;99.90;;;;;;5043747;28;20224;-82
2022/07/28 08:49:15;;;;;;;11.50;11.20;;;24.60;99.90;;;;;;5042469;28;20502;-82
2022/07/28 08:51:55;;;;;;;11.55;11.20;;;24.80;99.90;;;;;;5041468;28;20254;-82
2022/07/28 08:54:30;;;;;;;11.25;10.95;;;25.10;99.90;;;;;;5041296;28;20231;-82
2022/07/28 08:59:49;;;;;;;11.13;10.82;;;25.20;99.90;;;;;;5044433;28;20226;-82
2022/07/28 09:02:18;;;;;;;10.98;10.68;;;25.50;99.90;;;;;;5044542;28;20227;-81
2022/07/28 09:04:45;;;;;;;11.18;10.88;;;25.80;99.90;;;;;;5042401;28;20242;-81
2022/07/28 09:07:15;;;;;;;11.07;10.77;;;26.00;99.90;;;;;;5045275;28;20229;-84
2022/07/28 09:12:58;;;;;;;11.07;10.77;;;26.20;99.90;;;;;;5042761;28;20227;-84
2022/07/28 09:15:27;;;;;;;11.15;10.85;;;26.40;99.90;;;;;;5040661;28;20326;-82
2022/07/28 09:17:58;;;;;;;11.63;11.23;;;26.70;99.90;;;;;;5042274;28;20265;-84
2022/07/28 09:20:37;;;;;;;11.45;11.15;;;27.00;99.90;;;;;;5035350;28;20220;-85
2022/07/28 09:23:07;;;;;;;11.40;11.10;;;27.20;99.90;;;;;;5042100;28;20234;-89
2022/07/28 09:25:38;;;;;;;11.20;10.90;;;27.40;99.90;;;;;;5040392;28;20290;-88
2022/07/28 09:28:15;;;;;;;11.25;10.95;;;27.40;99.90;;;;;;5040173;28;20239;-88
2022/07/28 09:30:45;;;;;;;11.30;11.00;;;27.20;99.90;;;;;;5040617;28;20206;-88
2022/07/28 09:33:21;;;;;;;11.00;10.70;;;27.30;99.90;;;;;;5040104;28;20232;-88
2022/07/28 09:35:52;;;;;;;10.98;10.68;;;27.50;99.90;;;;;;5041769;28;20238;-86
2022/07/28 09:38:29;;;;;;;10.82;10.52;;;27.50;99.90;;;;;;5043339;28;20314;-88
2022/07/28 09:41:17;;;;;;;11.05;10.75;;;27.50;99.90;;;;;;5042979;28;20211;-86
2022/07/28 09:44:38;;;;;;;11.57;11.20;;;27.70;99.90;;;;;;5055790;28;20310;-89
2022/07/28 09:47:31;;;;;;;11.48;11.18;;;27.60;99.90;;;;;;5057139;28;20211;-89
2022/07/28 09:50:05;;;;;;;11.20;10.90;;;27.70;99.90;;;;;;5062775;28;20207;-86
2022/07/28 09:52:46;;;;;;;11.27;10.98;;;28.20;99.90;;;;;;5063343;28;20218;-90
2022/07/28 09:55:20;;;;;;;11.05;10.75;;;28.50;99.90;;;;;;5062299;28;20303;-87
2022/07/28 09:58:17;;;;;;;11.23;10.93;;;28.70;99.90;;;;;;5061523;28;20242;-88
2022/07/28 10:03:43;;;;;;;10.75;10.45;;;28.80;99.90;;;;;;5042440;28;20319;-89
2022/07/28 10:06:30;;;;;;;10.70;10.40;;;28.80;99.90;;;;;;5042583;28;20246;-89
2022/07/28 10:09:01;;;;;;;10.80;10.50;;;29.00;99.90;;;;;;5043029;28;20258;-88
2022/07/28 10:11:30;;;;;;;11.00;10.70;;;29.10;99.90;;;;;;5043244;28;20219;-88
2022/07/28 10:14:06;;;;;;;11.10;10.80;;;29.30;99.90;;;;;;5044833;28;20697;-88
2022/07/28 10:16:36;;;;;;;11.20;10.90;;;29.50;99.90;;;;;;5062047;28;20254;-88
2022/07/28 10:19:05;;;;;;;10.90;10.60;;;29.60;99.90;;;;;;5063704;28;20278;-88
2022/07/28 10:21:42;;;;;;;11.27;10.98;;;29.80;99.90;;;;;;5062708;28;20239;-88
2022/07/28 10:24:15;;;;;;;11.05;10.75;;;29.80;99.90;;;;;;5063712;28;20249;-86
2022/07/28 10:26:54;;;;;;;11.18;10.88;;;30.00;99.90;;;;;;5049626;28;20212;-88
2022/07/28 10:29:55;;;;;;;11.30;11.00;;;30.10;99.90;;;;;;5052083;28;20234;-88
2022/07/28 10:32:52;;;;;;;11.38;11.07;;;30.10;99.90;;;;;;5042568;28;20235;-88
2022/07/28 10:43:18;;;;;;;11.50;11.20;;;30.40;99.90;;;;;;4940727;29;20333;-86
2022/07/28 10:48:37;;;;;;;11.10;10.80;;;30.10;99.90;;;;;;5057775;28;20267;-87
2022/07/28 10:51:10;;;;;;;11.40;11.10;;;30.30;99.90;;;;;;5062731;28;20226;-89
2022/07/28 10:53:47;;;;;;;11.35;11.05;;;30.60;99.90;;;;;;5073374;28;20239;-87
2022/07/28 10:56:32;;;;;;;11.38;11.07;;;30.80;99.90;;;;;;5062559;28;20220;-87
2022/07/28 10:59:12;;;;;;;11.60;11.20;;;31.00;99.90;;;;;;5054723;28;20227;-86
2022/07/28 11:05:00;;;;;;;10.77;10.48;;;30.50;99.90;;;;;;5042712;28;20223;-87
2022/07/28 11:07:43;;;;;;;10.68;10.38;;;30.60;99.90;;;;;;5041364;28;20278;-88
2022/07/28 11:10:18;;;;;;;10.60;10.30;;;30.50;99.90;;;;;;5042827;28;20228;-86
2022/07/28 11:12:51;;;;;;;10.70;10.40;;;30.90;99.90;;;;;;5042276;28;20241;-86
2022/07/28 11:15:33;;;;;;;10.50;10.20;;;31.40;99.90;;;;;;5044710;28;20235;-86
2022/07/28 11:18:08;;;;;;;11.30;11.00;;;31.50;99.90;;;;;;5050022;28;20283;-86
2022/07/28 11:21:16;;;;;;;11.15;10.85;;;31.80;99.90;;;;;;5046643;28;20243;-85
2022/07/28 11:23:54;;;;;;;11.20;10.90;;;32.00;99.90;;;;;;5042914;28;20247;-85
2022/07/28 11:26:40;;;;;;;10.90;10.60;;;31.90;99.90;;;;;;5041377;28;20260;-85
2022/07/28 11:29:26;;;;;;;11.20;10.90;;;31.80;99.90;;;;;;5042019;28;20239;-86
2022/07/28 11:32:06;;;;;;;11.07;10.77;;;31.80;99.90;;;;;;5041870;28;20227;-85
2022/07/28 11:35:26;;;;;;;11.15;10.85;;;31.80;99.90;;;;;;5040545;28;20246;-85
2022/07/28 11:38:14;;;;;;;11.45;11.15;;;31.90;99.90;;;;;;4980027;28;20293;-85
2022/07/28 11:40:43;;;;;;;11.30;11.00;;;31.90;99.90;;;;;;5020429;28;20242;-86
2022/07/28 11:43:38;;;;;;;11.35;11.05;;;32.10;99.90;;;;;;5019882;28;20264;-86
2022/07/28 11:46:36;;;;;;;11.27;10.98;;;32.40;99.90;;;;;;5031363;28;20322;-87
2022/07/28 11:49:29;;;;;;;11.07;10.77;;;32.40;99.90;;;;;;5040062;28;20689;-87
2022/07/28 11:52:29;;;;;;;11.50;11.20;;;32.40;99.90;;;;;;5040244;28;20334;-85
2022/07/28 11:54:57;;;;;;;11.20;10.90;;;32.40;99.90;;;;;;5041070;28;20339;-85
2022/07/28 11:57:36;;;;;;;11.20;10.90;;;32.50;99.90;;;;;;5041750;28;20270;-84
2022/07/28 12:00:11;;;;;;;10.82;10.52;;;32.20;99.90;;;;;;5045112;28;20254;-82
2022/07/28 12:05:29;;;;;;;11.10;10.80;;;31.70;99.90;;;;;;5036206;28;20287;-84
2022/07/28 12:08:18;;;;;;;11.25;10.95;;;31.80;99.90;;;;;;5054802;28;20239;-86
2022/07/28 12:10:52;;;;;;;11.38;11.07;;;32.20;99.90;;;;;;5027171;28;20219;-86
2022/07/28 12:13:33;;;;;;;11.15;10.85;;;32.70;99.90;;;;;;5023358;28;20231;-84
2022/07/28 12:16:00;;;;;;;11.35;11.05;;;33.30;99.90;;;;;;5024378;28;20228;-87
2022/07/28 12:21:53;;;;;;;11.10;10.80;;;34.10;99.90;;;;;;5021856;28;20258;-86
2022/07/28 12:27:36;;;;;;;10.75;10.45;;;33.20;99.90;;;;;;5028348;28;20315;-86
2022/07/28 12:32:51;;;;;;;10.88;10.57;;;32.90;99.90;;;;;;5042323;28;20242;-87
2022/07/28 12:38:27;;;;;;;11.90;11.50;;;33.00;99.90;;;;;;5050235;28;20391;-86
2022/07/28 12:40:58;;;;;;;11.32;11.02;;;33.70;99.90;;;;;;5047025;28;20223;-87
2022/07/28 12:43:33;;;;;;;11.60;11.20;;;34.30;99.90;;;;;;5046294;28;20243;-86
2022/07/28 12:46:02;;;;;;;11.30;11.00;;;34.90;99.90;;;;;;5044159;28;20261;-87
2022/07/28 12:48:32;;;;;;;10.80;10.50;;;35.20;99.90;;;;;;5040784;28;20231;-85
2022/07/28 12:51:03;;;;;;;10.60;10.30;;;35.30;99.90;;;;;;5042068;28;20265;-86
2022/07/28 12:53:32;;;;;;;10.70;10.40;;;34.90;99.90;;;;;;5041985;28;20239;-87
2022/07/28 12:59:17;;;;;;;10.35;10.05;;;33.80;99.90;;;;;;5044531;28;20215;-88
2022/07/28 13:01:54;;;;;;;10.50;10.20;;;33.50;99.90;;;;;;5028577;28;20239;-88
2022/07/28 13:04:44;;;;;;;10.95;10.65;;;32.90;99.90;;;;;;5041886;28;20274;-88
2022/07/28 13:07:36;;;;;;;11.05;10.75;;;32.70;99.90;;;;;;5041586;28;20327;-88
2022/07/28 13:10:21;;;;;;;10.60;10.30;;;32.10;99.90;;;;;;5040629;28;20228;-88
2022/07/28 13:13:09;;;;;;;11.10;10.80;;;31.80;99.90;;;;;;5041312;28;20227;-89
2022/07/28 13:15:41;;;;;;;10.80;10.50;;;31.40;99.90;;;;;;5043239;28;20247;-88
2022/07/28 13:18:19;;;;;;;11.10;10.80;;;31.00;99.90;;;;;;5043839;28;20235;-87
2022/07/28 13:23:35;;;;;;;11.00;10.70;;;30.70;99.90;;;;;;5042277;28;20676;-86
2022/07/28 13:26:04;;;;;;;11.18;10.88;;;30.90;99.90;;;;;;5041801;28;20243;-86
2022/07/28 13:28:44;;;;;;;11.15;10.85;;;31.10;99.90;;;;;;5042631;28;20231;-86
2022/07/28 13:31:12;;;;;;;11.10;10.80;;;31.90;99.90;;;;;;5041393;28;20254;-86
2022/07/28 13:33:41;;;;;;;11.05;10.75;;;32.40;99.90;;;;;;5043206;28;20239;-87
2022/07/28 13:36:11;;;;;;;10.90;10.60;;;32.60;99.90;;;;;;5042526;28;20242;-87
2022/07/28 13:38:40;;;;;;;10.38;10.07;;;33.00;99.90;;;;;;5045875;28;20231;-87
2022/07/28 13:41:10;;;;;;;10.35;10.05;;;33.10;99.90;;;;;;5048400;28;20231;-87
2022/07/28 13:43:50;;;;;;;10.60;10.30;;;33.20;99.90;;;;;;5048689;28;20235;-87
2022/07/28 13:46:27;;;;;;;10.73;10.43;;;33.10;99.90;;;;;;5059381;28;20231;-86
2022/07/28 13:48:59;;;;;;;10.80;10.50;;;33.30;99.90;;;;;;5045034;28;20258;-86
2022/07/28 13:51:26;;;;;;;10.80;10.50;;;33.20;99.90;;;;;;5044228;28;20267;-87
2022/07/28 13:53:57;;;;;;;11.32;11.02;;;33.10;99.90;;;;;;5044450;28;20242;-87
2022/07/28 13:57:46;;;;;;;11.40;11.10;;;33.10;99.90;;;;;;5043306;28;20246;-88
2022/07/28 14:00:26;;;;;;;10.90;10.60;;;33.10;99.90;;;;;;5041523;28;20234;-87
2022/07/28 14:03:02;;;;;;;11.07;10.77;;;33.10;99.90;;;;;;5045328;28;20235;-88
2022/07/28 14:05:38;;;;;;;11.30;11.00;;;33.00;99.60;;;;;;5046294;28;20242;-89
2022/07/28 14:08:20;;;;;;;11.18;10.88;;;32.70;99.60;;;;;;5024585;28;20243;-87
2022/07/28 14:10:55;;;;;;;11.10;10.80;;;32.30;99.90;;;;;;5023781;28;20231;-86
2022/07/28 14:13:24;;;;;;;11.25;10.95;;;32.40;99.90;;;;;;5022382;28;20258;-87
2022/07/28 14:18:40;;;;;;;11.30;11.00;;;32.80;99.90;;;;;;5022422;28;20227;-87
2022/07/28 14:21:12;;;;;;;10.90;10.60;;;32.80;99.90;;;;;;5026074;28;20224;-88
2022/07/28 14:23:40;;;;;;;10.90;10.60;;;32.80;98.90;;;;;;5023361;28;20412;-88
2022/07/28 14:26:11;;;;;;;10.93;10.63;;;32.50;99.90;;;;;;5023205;28;20232;-85
2022/07/28 14:28:39;;;;;;;10.80;10.50;;;32.30;99.90;;;;;;5040451;28;20236;-86
2022/07/28 14:31:18;;;;;;;11.20;10.90;;;32.10;99.90;;;;;;5042969;28;20340;-89
2022/07/28 14:34:03;;;;;;;11.27;10.98;;;31.80;99.90;;;;;;5042761;28;20251;-88
2022/07/28 14:40:12;;;;;;;11.07;10.77;;;31.60;99.90;;;;;;5021435;28;20247;-87
2022/07/28 14:42:48;;;;;;;11.20;10.90;;;31.40;99.90;;;;;;5021345;28;20244;-87
2022/07/28 14:45:30;;;;;;;10.70;10.40;;;31.30;99.90;;;;;;5040536;28;20219;-88
2022/07/28 14:48:08;;;;;;;10.45;10.15;;;31.30;99.90;;;;;;5041467;28;20279;-87
2022/07/28 14:50:40;;;;;;;10.80;10.50;;;31.30;99.90;;;;;;5058208;28;20279;-87
2022/07/28 14:53:33;;;;;;;10.70;10.40;;;31.40;99.90;;;;;;5059254;28;20223;-87
2022/07/28 14:56:02;;;;;;;10.65;10.35;;;31.50;99.90;;;;;;5060546;28;20238;-87
2022/07/28 14:58:51;;;;;;;11.15;10.85;;;31.60;99.90;;;;;;5059793;28;20220;-87
2022/07/28 15:01:21;;;;;;;11.20;10.90;;;31.70;99.90;;;;;;5049973;28;20234;-89
2022/07/28 15:06:34;;;;;;;11.32;11.02;;;31.90;99.90;;;;;;5031118;28;20236;-87
2022/07/28 15:09:05;;;;;;;11.20;10.90;;;32.10;99.90;;;;;;5034010;28;20235;-87
2022/07/28 15:11:51;;;;;;;11.20;10.90;;;32.20;99.90;;;;;;5051145;28;20323;-86
2022/07/28 15:14:20;;;;;;;11.10;10.80;;;32.60;99.90;;;;;;5046593;28;20259;-87
2022/07/28 15:16:52;;;;;;;10.93;10.63;;;32.80;99.50;;;;;;5046607;28;20233;-88
2022/07/28 15:19:32;;;;;;;10.90;10.60;;;33.20;98.90;;;;;;5046741;28;20254;-87
2022/07/28 15:22:27;;;;;;;10.80;10.50;;;33.20;98.30;;;;;;5035865;28;20235;-87
2022/07/28 15:24:56;;;;;;;10.90;10.60;;;32.80;98.70;;;;;;5043246;28;20243;-88
2022/07/28 15:27:26;;;;;;;10.82;10.52;;;32.30;99.30;;;;;;5043334;28;20236;-87
2022/07/28 15:29:54;;;;;;;10.77;10.48;;;32.10;99.20;;;;;;5042024;28;20235;-88
2022/07/28 15:32:28;;;;;;;10.90;10.60;;;31.90;99.90;;;;;;5042643;28;20270;-87
2022/07/28 15:37:52;;;;;;;10.90;10.60;;;31.70;99.90;;;;;;5040710;28;20366;-87
2022/07/28 15:40:28;;;;;;;10.98;10.68;;;31.70;99.50;;;;;;5040273;28;20238;-87
2022/07/28 15:45:55;;;;;;;10.90;10.60;;;31.60;99.60;;;;;;5048916;28;20238;-87
2022/07/28 15:48:31;;;;;;;10.90;10.60;;;31.70;99.30;;;;;;5082897;28;20221;-87
2022/07/28 15:53:59;;;;;;;11.25;10.95;;;31.80;99.80;;;;;;5068021;28;20226;-86
2022/07/28 15:59:21;;;;;;;11.60;11.20;;;32.30;98.90;;;;;;5058804;28;20229;-86
2022/07/28 16:02:31;;;;;;;11.27;10.98;;;32.60;98.70;;;;;;5060887;28;20310;-85
2022/07/28 16:05:22;;;;;;;10.70;10.40;;;33.20;98.50;;;;;;5052783;28;20289;-84
2022/07/28 16:08:00;;;;;;;10.65;10.35;;;33.60;98.30;;;;;;5063476;28;20222;-86
2022/07/28 16:10:40;;;;;;;10.75;10.45;;;33.80;98.70;;;;;;5078777;28;20195;-86
2022/07/28 16:46:34;;;;;;;11.05;10.75;;;33.00;97.80;;;;;;5025584;22;20248;-88
2022/07/28 16:49:01;;;;;;;11.10;10.80;;;33.50;96.40;;;;;;5080220;28;20230;-88
2022/07/28 16:51:30;;;;;;;11.13;10.82;;;33.90;96.80;;;;;;5078662;28;20317;-88
2022/07/28 16:54:00;;;;;;;10.98;10.68;;;34.30;97.00;;;;;;5079236;28;20253;-88
2022/07/28 16:56:29;;;;;;;10.75;10.45;;;34.50;95.30;;;;;;5070899;28;20381;-88
2022/07/28 16:59:00;;;;;;;10.82;10.52;;;34.70;96.80;;;;;;5060353;28;20722;-88
2022/07/28 17:01:30;;;;;;;10.90;10.60;;;35.00;96.00;;;;;;5059793;28;20231;-88
2022/07/28 17:04:06;;;;;;;11.00;10.70;;;35.00;96.00;;;;;;5060495;28;20285;-88